Time;durP1;ratioP1;P1;durP2;ratioP2;P2;SDS_P1;SDS_P2;PMS_P1;PMS_P2;Temp;Humidity;BMP_temperature;BMP_pressure;BME280_temperature;BME280_humidity;BME280_pressure;Samples;Min_cycle;Max_cycle;Signal;HPM_P1;HPM_P2
2021/01/12 00:00:29;;;;;;;1.60;0.57;;;26.50;70.50;;;;;;5063528;28;20430;-84
2021/01/12 00:02:57;;;;;;;2.45;0.50;;;26.60;72.30;;;;;;5066081;28;20480;-84
2021/01/12 00:05:25;;;;;;;2.15;0.43;;;26.90;70.70;;;;;;5068712;28;20447;-85
2021/01/12 00:07:52;;;;;;;1.75;0.50;;;27.20;69.10;;;;;;5068429;28;20400;-85
2021/01/12 00:10:23;;;;;;;3.23;0.70;;;27.50;65.20;;;;;;5067250;28;20393;-84
2021/01/12 00:12:52;;;;;;;4.63;0.83;;;27.60;67.30;;;;;;5057310;28;20389;-84
2021/01/12 00:15:20;;;;;;;3.45;0.63;;;27.60;68.50;;;;;;5039129;28;20748;-84
2021/01/12 00:17:47;;;;;;;2.05;0.52;;;27.70;67.60;;;;;;5066629;28;20439;-85
2021/01/12 00:20:14;;;;;;;2.80;0.60;;;27.90;66.00;;;;;;5062585;28;20408;-85
2021/01/12 00:22:41;;;;;;;1.65;0.55;;;28.30;63.70;;;;;;5050035;28;20388;-85
2021/01/12 00:25:09;;;;;;;2.33;0.77;;;28.80;66.30;;;;;;5066446;28;20378;-85
2021/01/12 00:27:36;;;;;;;2.65;0.70;;;29.20;63.20;;;;;;5063036;28;20433;-84
2021/01/12 00:30:05;;;;;;;2.93;0.60;;;30.00;61.30;;;;;;5052404;28;20473;-84
2021/01/12 00:32:32;;;;;;;1.40;0.40;;;30.70;59.40;;;;;;5068736;28;20364;-84
2021/01/12 00:34:59;;;;;;;2.60;0.40;;;31.10;54.40;;;;;;5096483;28;20434;-83
2021/01/12 00:37:27;;;;;;;2.40;0.50;;;30.80;55.90;;;;;;5092931;28;20622;-84
2021/01/12 00:39:55;;;;;;;2.58;0.60;;;30.80;54.00;;;;;;5057492;28;20418;-84
2021/01/12 00:42:22;;;;;;;3.13;0.50;;;31.00;54.20;;;;;;5072099;28;20486;-84
2021/01/12 00:44:49;;;;;;;3.30;0.70;;;31.30;55.80;;;;;;5055174;28;20392;-84
2021/01/12 00:47:16;;;;;;;3.35;0.68;;;31.70;53.10;;;;;;5059956;28;20701;-85
2021/01/12 00:49:43;;;;;;;1.13;0.40;;;32.00;53.50;;;;;;5051700;28;20392;-85
2021/01/12 00:52:13;;;;;;;1.70;0.50;;;31.70;52.70;;;;;;5055290;28;20380;-84
2021/01/12 00:54:40;;;;;;;1.95;0.55;;;31.00;53.20;;;;;;5069289;28;20477;-84
2021/01/12 00:57:07;;;;;;;1.00;0.50;;;30.60;52.50;;;;;;5066384;28;20379;-85
2021/01/12 00:59:34;;;;;;;1.92;0.47;;;30.40;56.10;;;;;;5071341;28;20485;-85
2021/01/12 01:02:05;;;;;;;1.55;0.60;;;30.60;53.70;;;;;;5060712;28;20887;-85
2021/01/12 01:04:33;;;;;;;1.77;0.68;;;30.60;56.70;;;;;;5062385;28;20472;-86
2021/01/12 01:07:00;;;;;;;1.17;0.52;;;30.50;54.70;;;;;;5056195;28;20533;-83
2021/01/12 01:09:27;;;;;;;2.80;0.60;;;30.20;56.70;;;;;;5047852;28;20773;-84
2021/01/12 01:11:54;;;;;;;1.40;0.50;;;29.80;60.00;;;;;;5069111;28;20394;-85
2021/01/12 01:14:21;;;;;;;1.80;0.52;;;29.50;61.00;;;;;;5066896;28;20496;-85
2021/01/12 01:16:49;;;;;;;1.45;0.50;;;29.50;63.50;;;;;;5050909;28;20879;-84
2021/01/12 01:19:16;;;;;;;3.60;0.50;;;29.70;61.40;;;;;;5050727;28;20388;-84
2021/01/12 01:21:48;;;;;;;3.13;0.40;;;29.70;60.20;;;;;;5050833;28;20379;-84
2021/01/12 01:24:15;;;;;;;1.15;0.55;;;29.40;58.50;;;;;;5057011;28;20358;-86
2021/01/12 01:26:42;;;;;;;2.47;0.70;;;29.50;59.00;;;;;;5052841;28;20446;-84
2021/01/12 01:29:09;;;;;;;2.55;0.60;;;29.70;61.60;;;;;;5051323;28;20388;-85
2021/01/12 01:31:40;;;;;;;2.08;0.70;;;29.70;62.40;;;;;;5050377;28;20411;-84
2021/01/12 01:34:07;;;;;;;2.85;0.60;;;29.80;59.40;;;;;;5049267;28;20383;-84
2021/01/12 01:36:34;;;;;;;1.65;0.70;;;30.00;61.20;;;;;;5050550;28;20860;-86
2021/01/12 01:39:01;;;;;;;2.75;0.60;;;29.90;60.10;;;;;;5050575;28;20406;-85
2021/01/12 01:41:29;;;;;;;3.83;0.95;;;29.70;58.80;;;;;;5059968;28;20385;-85
2021/01/12 01:43:56;;;;;;;2.38;0.50;;;29.90;61.70;;;;;;5069220;28;20389;-87
2021/01/12 01:46:23;;;;;;;1.67;0.47;;;29.90;62.20;;;;;;5054400;28;20539;-85
2021/01/12 01:48:51;;;;;;;3.85;0.50;;;30.00;58.90;;;;;;5049569;28;20847;-86
2021/01/12 01:51:18;;;;;;;3.03;0.60;;;30.10;58.10;;;;;;5050289;28;20387;-86
2021/01/12 01:53:46;;;;;;;3.30;0.60;;;30.00;58.40;;;;;;5050484;28;20384;-85
2021/01/12 01:56:13;;;;;;;1.00;0.50;;;29.90;60.10;;;;;;5050517;28;20387;-86
2021/01/12 01:58:41;;;;;;;2.03;0.40;;;30.00;63.00;;;;;;5050271;28;20419;-85
2021/01/12 02:01:09;;;;;;;2.55;0.43;;;30.10;62.10;;;;;;5066471;28;20437;-87
2021/01/12 02:04:19;;;;;;;3.55;0.57;;;29.80;59.80;;;;;;5062917;28;20467;-86
2021/01/12 02:06:48;;;;;;;4.30;0.65;;;29.40;60.20;;;;;;5055600;28;20398;-85
2021/01/12 02:09:27;;;;;;;1.65;0.70;;;29.10;57.80;;;;;;5065638;28;20390;-84
2021/01/12 02:11:57;;;;;;;1.65;0.50;;;29.20;60.40;;;;;;5068020;28;20390;-85
2021/01/12 02:14:27;;;;;;;2.53;0.55;;;29.40;59.10;;;;;;5069250;28;20830;-85
2021/01/12 02:16:56;;;;;;;1.83;0.40;;;29.50;59.10;;;;;;5066548;28;20872;-85
2021/01/12 02:19:28;;;;;;;4.35;1.17;;;29.70;57.50;;;;;;5063588;28;20423;-85
2021/01/12 02:22:03;;;;;;;2.90;0.50;;;29.80;61.30;;;;;;5069809;28;20424;-85
2021/01/12 02:24:35;;;;;;;2.67;0.40;;;29.70;60.30;;;;;;5065151;28;20715;-84
2021/01/12 02:27:03;;;;;;;1.38;0.40;;;29.80;61.50;;;;;;5061165;28;20926;-85
2021/01/12 02:29:30;;;;;;;2.20;0.43;;;29.90;59.10;;;;;;5060569;28;20395;-85
2021/01/12 02:31:57;;;;;;;2.00;0.60;;;30.00;62.70;;;;;;5061796;28;20454;-85
2021/01/12 02:34:27;;;;;;;1.73;0.40;;;30.10;59.80;;;;;;5068942;28;20390;-85
2021/01/12 02:36:55;;;;;;;1.70;0.50;;;30.20;59.00;;;;;;5069362;28;20435;-85
2021/01/12 02:39:22;;;;;;;2.83;0.50;;;30.20;58.40;;;;;;5068063;28;20495;-85
2021/01/12 02:41:49;;;;;;;3.17;0.50;;;30.20;55.90;;;;;;5065760;28;20761;-85
2021/01/12 02:44:22;;;;;;;3.97;0.43;;;30.20;59.70;;;;;;5067913;28;20487;-85
2021/01/12 02:46:50;;;;;;;4.55;0.50;;;30.00;58.00;;;;;;5056729;28;20944;-85
2021/01/12 02:49:17;;;;;;;1.05;0.43;;;30.10;58.70;;;;;;5062047;28;20907;-85
2021/01/12 02:51:44;;;;;;;2.90;0.45;;;30.20;62.10;;;;;;5063477;28;20485;-86
2021/01/12 02:54:11;;;;;;;1.05;0.43;;;30.30;62.10;;;;;;5060277;28;20430;-87
2021/01/12 02:56:38;;;;;;;2.00;0.52;;;30.40;61.40;;;;;;5070655;28;20380;-86
2021/01/12 02:59:05;;;;;;;0.80;0.30;;;30.40;63.50;;;;;;5071685;28;20948;-86
2021/01/12 03:01:32;;;;;;;1.77;0.50;;;30.50;57.00;;;;;;5063395;28;20394;-85
2021/01/12 03:03:59;;;;;;;2.33;0.50;;;30.30;54.70;;;;;;5062473;28;20397;-85
2021/01/12 03:06:27;;;;;;;4.32;0.60;;;30.30;57.50;;;;;;5060222;28;20398;-84
2021/01/12 03:08:53;;;;;;;1.90;0.50;;;30.20;56.00;;;;;;5049850;28;20375;-85
2021/01/12 03:11:20;;;;;;;2.50;0.50;;;30.10;55.30;;;;;;5067676;28;20398;-85
2021/01/12 03:13:47;;;;;;;1.17;0.45;;;30.00;56.80;;;;;;5055490;28;20387;-85
2021/01/12 03:16:14;;;;;;;0.80;0.40;;;29.90;59.00;;;;;;5068651;28;20877;-85
2021/01/12 03:18:42;;;;;;;1.15;0.35;;;29.90;58.30;;;;;;5065713;28;20394;-85
2021/01/12 03:21:09;;;;;;;0.85;0.32;;;29.90;57.20;;;;;;5066938;28;20558;-86
2021/01/12 03:23:36;;;;;;;2.13;0.35;;;30.00;55.90;;;;;;5067728;28;20397;-86
2021/01/12 03:26:03;;;;;;;2.28;0.57;;;30.10;57.60;;;;;;5065726;28;20468;-86
2021/01/12 03:28:30;;;;;;;1.40;0.50;;;30.20;58.80;;;;;;5073854;28;20710;-87
2021/01/12 03:30:57;;;;;;;1.90;0.50;;;30.30;57.10;;;;;;5066151;28;20405;-87
2021/01/12 03:33:24;;;;;;;1.70;0.55;;;30.40;54.00;;;;;;5065996;28;20398;-86
2021/01/12 03:35:51;;;;;;;2.78;0.50;;;30.30;55.30;;;;;;5066601;28;20390;-86
2021/01/12 03:38:18;;;;;;;1.08;0.40;;;30.40;54.80;;;;;;5066496;28;20390;-87
2021/01/12 03:40:45;;;;;;;0.95;0.20;;;30.40;53.50;;;;;;5061867;28;20401;-87
2021/01/12 03:43:12;;;;;;;1.80;0.30;;;30.50;53.90;;;;;;5065429;28;20402;-88
2021/01/12 03:45:39;;;;;;;3.10;0.75;;;30.70;55.80;;;;;;5062647;28;20491;-88
2021/01/12 03:48:09;;;;;;;4.25;1.00;;;30.80;57.70;;;;;;5065841;28;20374;-85
2021/01/12 03:50:36;;;;;;;2.45;0.80;;;30.80;61.20;;;;;;5065121;28;20423;-86
2021/01/12 03:53:03;;;;;;;4.18;0.90;;;30.70;64.20;;;;;;5059845;28;20415;-86
2021/01/12 03:55:31;;;;;;;3.97;1.03;;;30.70;63.00;;;;;;5055066;28;20395;-85
2021/01/12 03:57:58;;;;;;;2.80;0.80;;;30.50;65.40;;;;;;5064554;28;20479;-86
2021/01/12 04:00:25;;;;;;;3.70;0.82;;;30.40;64.50;;;;;;5064547;28;20436;-87
2021/01/12 04:02:52;;;;;;;2.85;0.95;;;30.30;63.70;;;;;;5067926;28;20386;-87
2021/01/12 04:05:19;;;;;;;4.47;0.80;;;30.20;65.10;;;;;;5061101;28;20407;-85
2021/01/12 04:07:46;;;;;;;6.45;1.20;;;30.10;67.40;;;;;;5061020;28;20386;-86
2021/01/12 04:10:13;;;;;;;2.85;0.85;;;30.20;66.90;;;;;;5067814;28;20374;-85
2021/01/12 04:12:40;;;;;;;4.05;0.80;;;30.20;66.80;;;;;;5060279;28;20510;-85
2021/01/12 04:15:08;;;;;;;3.72;1.05;;;30.10;67.50;;;;;;5066938;28;20455;-85
2021/01/12 04:17:35;;;;;;;2.60;0.88;;;30.20;67.60;;;;;;5068076;28;20419;-86
2021/01/12 04:20:03;;;;;;;3.47;1.25;;;30.20;66.40;;;;;;5065300;28;20772;-87
2021/01/12 04:22:30;;;;;;;3.83;1.15;;;30.20;66.40;;;;;;5066422;28;20396;-86
2021/01/12 04:24:57;;;;;;;4.60;0.80;;;30.10;68.10;;;;;;5066411;28;20749;-87
2021/01/12 04:27:24;;;;;;;4.15;0.93;;;30.20;66.90;;;;;;5067910;28;20419;-87
2021/01/12 04:29:51;;;;;;;3.30;0.90;;;30.20;68.20;;;;;;5065934;28;20411;-85
2021/01/12 04:32:18;;;;;;;3.90;1.00;;;30.30;70.60;;;;;;5067612;28;20405;-85
2021/01/12 04:34:45;;;;;;;2.50;1.00;;;30.10;68.80;;;;;;5063498;28;21011;-86
2021/01/12 04:37:12;;;;;;;5.67;0.93;;;30.10;68.60;;;;;;5059332;28;20385;-85
2021/01/12 04:39:39;;;;;;;5.73;1.30;;;29.90;69.50;;;;;;5067125;28;20390;-85
2021/01/12 04:42:06;;;;;;;1.95;0.80;;;29.90;69.70;;;;;;5063549;28;20430;-85
2021/01/12 04:44:33;;;;;;;4.68;0.98;;;29.90;70.30;;;;;;5056599;28;20387;-86
2021/01/12 04:47:00;;;;;;;5.70;1.20;;;29.90;70.50;;;;;;5047841;28;20395;-85
2021/01/12 04:49:27;;;;;;;3.70;1.00;;;29.90;69.60;;;;;;5047357;28;20823;-85
2021/01/12 04:51:54;;;;;;;3.55;0.90;;;29.70;69.40;;;;;;5050932;28;20388;-86
2021/01/12 04:54:31;;;;;;;3.85;0.90;;;29.60;69.50;;;;;;5073966;28;20380;-85
2021/01/12 04:56:58;;;;;;;2.70;1.00;;;29.60;70.80;;;;;;5073942;28;20375;-85
2021/01/12 04:59:32;;;;;;;5.05;1.10;;;29.60;69.70;;;;;;5067240;28;20486;-84
2021/01/12 05:02:00;;;;;;;4.67;1.00;;;29.70;69.70;;;;;;5066795;28;20889;-85
2021/01/12 05:04:27;;;;;;;3.43;0.80;;;29.50;69.00;;;;;;5062171;28;20403;-87
2021/01/12 05:06:56;;;;;;;4.67;0.90;;;29.20;69.30;;;;;;5045961;28;20385;-85
2021/01/12 05:09:24;;;;;;;3.17;1.25;;;29.00;72.10;;;;;;5068115;28;20405;-86
2021/01/12 05:11:56;;;;;;;3.83;0.80;;;29.10;70.70;;;;;;5045861;28;20965;-85
2021/01/12 05:14:26;;;;;;;3.35;1.30;;;29.20;70.10;;;;;;5065335;28;20471;-87
2021/01/12 05:16:57;;;;;;;3.88;1.20;;;29.20;69.30;;;;;;5063104;28;20395;-86
2021/01/12 05:19:35;;;;;;;4.00;1.10;;;29.20;70.10;;;;;;5049955;28;20391;-86
2021/01/12 05:22:05;;;;;;;3.67;0.90;;;29.30;70.50;;;;;;5048948;28;20384;-86
2021/01/12 05:24:45;;;;;;;2.23;0.93;;;29.30;69.80;;;;;;5050515;28;20364;-87
2021/01/12 05:27:12;;;;;;;2.30;0.85;;;29.20;70.60;;;;;;5051049;28;20415;-86
2021/01/12 05:29:41;;;;;;;3.47;1.17;;;28.90;70.80;;;;;;5051098;28;20352;-86
2021/01/12 05:32:12;;;;;;;3.80;0.93;;;28.80;70.70;;;;;;5051555;28;20947;-87
2021/01/12 05:34:40;;;;;;;5.68;1.08;;;28.80;70.70;;;;;;5050952;28;20367;-87
2021/01/12 05:37:09;;;;;;;4.03;0.93;;;28.70;72.00;;;;;;5050883;28;20465;-86
2021/01/12 05:39:39;;;;;;;3.83;0.88;;;28.70;72.20;;;;;;5050604;28;20400;-84
2021/01/12 05:42:11;;;;;;;3.60;1.00;;;28.70;71.50;;;;;;5050656;28;20387;-86
2021/01/12 05:44:40;;;;;;;4.55;0.98;;;28.50;72.30;;;;;;5051405;28;20382;-85
2021/01/12 05:47:14;;;;;;;3.90;1.05;;;28.10;72.80;;;;;;5069717;28;20378;-84
2021/01/12 05:49:44;;;;;;;4.97;1.02;;;27.90;74.30;;;;;;5062805;28;20409;-85
2021/01/12 05:52:11;;;;;;;3.97;1.00;;;27.90;74.70;;;;;;5046555;28;20410;-85
2021/01/12 05:54:49;;;;;;;4.85;1.27;;;27.90;74.80;;;;;;5063166;28;20447;-85
2021/01/12 05:57:23;;;;;;;6.32;1.10;;;27.90;76.00;;;;;;5064096;28;20463;-86
2021/01/12 05:59:52;;;;;;;4.60;1.00;;;28.00;76.20;;;;;;5067971;28;20404;-86
2021/01/12 06:02:25;;;;;;;7.15;1.20;;;28.20;75.40;;;;;;5064498;28;20394;-87
2021/01/12 06:04:53;;;;;;;4.97;1.30;;;28.30;74.40;;;;;;5070109;28;20354;-86
2021/01/12 06:07:20;;;;;;;5.72;1.25;;;28.40;76.10;;;;;;5067980;28;20410;-86
2021/01/12 06:09:48;;;;;;;4.93;1.20;;;28.20;74.00;;;;;;5062168;28;20539;-85
2021/01/12 06:12:19;;;;;;;4.63;1.20;;;28.00;75.00;;;;;;5064559;28;20442;-85
2021/01/12 06:14:58;;;;;;;5.80;1.35;;;27.90;75.30;;;;;;5057141;28;20392;-87
2021/01/12 06:17:36;;;;;;;3.88;1.27;;;27.90;75.50;;;;;;5066110;28;20958;-86
2021/01/12 06:20:11;;;;;;;4.65;1.20;;;27.90;76.40;;;;;;5067156;28;20923;-86
2021/01/12 06:22:54;;;;;;;6.32;1.30;;;28.10;76.70;;;;;;5059202;28;20390;-84
2021/01/12 06:25:21;;;;;;;4.07;1.02;;;28.10;75.00;;;;;;5063567;28;20467;-85
2021/01/12 06:27:48;;;;;;;4.43;1.05;;;28.10;74.60;;;;;;5067455;28;20447;-85
2021/01/12 06:30:18;;;;;;;6.88;1.48;;;27.90;74.90;;;;;;5068406;28;20880;-84
2021/01/12 06:32:46;;;;;;;6.28;1.25;;;27.80;76.30;;;;;;5069515;28;20374;-85
2021/01/12 06:35:13;;;;;;;7.43;1.35;;;27.90;76.30;;;;;;5069090;28;20397;-85
2021/01/12 06:37:43;;;;;;;11.45;1.42;;;28.00;78.00;;;;;;5068681;28;20457;-85
2021/01/12 06:40:12;;;;;;;8.02;1.00;;;28.10;77.40;;;;;;5069578;28;20753;-84
2021/01/12 06:42:40;;;;;;;6.07;1.33;;;28.20;76.10;;;;;;5069885;28;20382;-86
2021/01/12 06:45:09;;;;;;;4.72;1.40;;;28.20;74.60;;;;;;5067212;28;20398;-85
2021/01/12 06:47:37;;;;;;;4.40;1.13;;;28.00;75.70;;;;;;5070091;28;20772;-85
2021/01/12 06:50:14;;;;;;;5.63;1.30;;;27.80;76.00;;;;;;5051596;28;20419;-86
2021/01/12 06:52:51;;;;;;;4.53;1.20;;;27.70;76.70;;;;;;5053463;28;20394;-85
2021/01/12 06:55:21;;;;;;;8.00;1.40;;;27.70;77.00;;;;;;5069526;28;20519;-85
2021/01/12 06:57:50;;;;;;;5.17;1.43;;;27.70;78.20;;;;;;5054445;28;20376;-85
2021/01/12 07:00:19;;;;;;;6.00;1.10;;;27.60;77.00;;;;;;5060315;28;20767;-86
2021/01/12 07:02:56;;;;;;;8.13;1.60;;;27.40;76.60;;;;;;5068942;28;20375;-86
2021/01/12 07:05:24;;;;;;;11.63;1.70;;;27.20;78.00;;;;;;5068919;28;20729;-85
2021/01/12 07:07:52;;;;;;;6.75;1.58;;;27.20;77.60;;;;;;5067341;28;20832;-83
2021/01/12 07:10:24;;;;;;;4.70;1.17;;;27.00;77.70;;;;;;5065730;28;20390;-85
2021/01/12 07:12:52;;;;;;;6.15;1.52;;;26.90;78.00;;;;;;5068350;28;20868;-85
2021/01/12 07:15:24;;;;;;;4.68;1.30;;;26.80;79.10;;;;;;5068076;28;20405;-84
2021/01/12 07:17:56;;;;;;;9.53;1.30;;;26.80;79.10;;;;;;5065079;28;20492;-86
2021/01/12 07:20:24;;;;;;;5.55;1.40;;;26.80;79.80;;;;;;5067463;28;20410;-85
2021/01/12 07:23:01;;;;;;;4.57;1.30;;;26.80;79.10;;;;;;5067131;28;20885;-85
2021/01/12 07:25:30;;;;;;;6.25;1.25;;;26.70;79.30;;;;;;5068453;28;20386;-84
2021/01/12 07:28:07;;;;;;;5.18;1.85;;;26.70;80.40;;;;;;5067859;28;20394;-85
2021/01/12 07:30:36;;;;;;;8.35;1.83;;;26.60;80.70;;;;;;5063820;28;20748;-84
2021/01/12 07:33:08;;;;;;;7.77;1.83;;;26.50;80.10;;;;;;5068081;28;20410;-85
2021/01/12 07:35:36;;;;;;;6.35;1.50;;;26.40;80.50;;;;;;5068692;28;20415;-84
2021/01/12 07:38:04;;;;;;;8.43;1.70;;;26.30;80.60;;;;;;5063877;28;20404;-84
2021/01/12 07:40:32;;;;;;;8.23;1.58;;;26.30;80.90;;;;;;5065089;28;20509;-84
2021/01/12 07:43:01;;;;;;;5.47;1.60;;;26.20;81.40;;;;;;5048551;28;20482;-84
2021/01/12 07:45:31;;;;;;;9.05;1.60;;;26.20;81.70;;;;;;5065115;28;20398;-84
2021/01/12 07:48:00;;;;;;;7.27;1.60;;;26.10;81.40;;;;;;5063093;28;20394;-83
2021/01/12 07:50:29;;;;;;;6.45;1.80;;;26.10;81.60;;;;;;5068847;28;20378;-86
2021/01/12 07:52:57;;;;;;;8.43;1.88;;;26.00;81.10;;;;;;5068212;28;20402;-86
2021/01/12 07:55:26;;;;;;;6.22;1.50;;;26.00;82.00;;;;;;5060893;28;20401;-84
2021/01/12 07:57:54;;;;;;;9.27;1.70;;;25.90;82.10;;;;;;5053385;28;20883;-84
2021/01/12 08:00:21;;;;;;;7.57;1.73;;;25.90;82.30;;;;;;5068139;28;20398;-86
2021/01/12 08:02:54;;;;;;;6.65;1.83;;;25.80;82.20;;;;;;5068677;28;20392;-85
2021/01/12 08:05:26;;;;;;;5.25;1.25;;;25.80;83.20;;;;;;5063790;28;20398;-85
2021/01/12 08:08:07;;;;;;;7.15;1.83;;;25.70;82.50;;;;;;5070841;28;20390;-84
2021/01/12 08:10:36;;;;;;;7.00;1.30;;;25.70;82.80;;;;;;5060115;28;20435;-84
2021/01/12 08:13:14;;;;;;;5.95;1.52;;;25.60;83.00;;;;;;5069189;28;20887;-86
2021/01/12 08:15:48;;;;;;;4.67;1.40;;;25.50;83.20;;;;;;5062843;28;21147;-84
2021/01/12 08:18:16;;;;;;;7.75;1.40;;;25.40;83.90;;;;;;5064918;28;20455;-86
2021/01/12 08:20:45;;;;;;;5.47;1.40;;;25.40;84.20;;;;;;5063266;28;20414;-84
2021/01/12 08:23:19;;;;;;;8.55;1.52;;;25.30;84.90;;;;;;5064050;28;20519;-85
2021/01/12 08:25:47;;;;;;;7.80;1.60;;;25.30;85.30;;;;;;5052812;28;20899;-85
2021/01/12 08:28:14;;;;;;;5.70;1.70;;;25.20;85.10;;;;;;5063420;28;20853;-84
2021/01/12 08:30:42;;;;;;;9.93;1.52;;;25.10;85.10;;;;;;5062772;28;20925;-85
2021/01/12 08:33:31;;;;;;;6.67;1.60;;;25.10;85.10;;;;;;5063314;28;20402;-85
2021/01/12 08:36:17;;;;;;;6.88;1.30;;;25.00;85.60;;;;;;5061272;28;20394;-85
2021/01/12 08:38:50;;;;;;;6.10;1.65;;;25.00;86.00;;;;;;5061158;28;20396;-86
2021/01/12 08:41:18;;;;;;;6.55;1.27;;;24.90;85.50;;;;;;5053178;28;20463;-84
2021/01/12 08:43:46;;;;;;;5.68;1.30;;;24.80;85.50;;;;;;5062895;28;20408;-85
2021/01/12 08:46:16;;;;;;;6.88;1.50;;;24.80;86.20;;;;;;5068474;28;20481;-84
2021/01/12 08:48:50;;;;;;;6.97;1.60;;;24.70;86.10;;;;;;5068535;28;20373;-85
2021/01/12 08:51:18;;;;;;;8.23;1.60;;;24.60;86.60;;;;;;5066580;28;20488;-83
2021/01/12 08:53:55;;;;;;;8.80;1.60;;;24.60;86.60;;;;;;5066847;28;20969;-83
2021/01/12 08:56:23;;;;;;;7.78;1.35;;;24.40;87.40;;;;;;5059216;28;20400;-84
2021/01/12 08:59:01;;;;;;;4.55;1.50;;;24.30;86.80;;;;;;5067830;28;20454;-83
2021/01/12 09:01:30;;;;;;;7.82;1.70;;;24.20;87.30;;;;;;5068357;28;20401;-85
2021/01/12 09:04:07;;;;;;;7.05;2.03;;;24.00;87.20;;;;;;5068203;28;20408;-84
2021/01/12 09:06:36;;;;;;;9.32;1.83;;;23.90;87.30;;;;;;5068694;28;20706;-86
2021/01/12 09:09:11;;;;;;;10.30;2.00;;;23.90;87.50;;;;;;5068037;28;20374;-83
2021/01/12 09:11:48;;;;;;;8.40;1.60;;;23.80;87.80;;;;;;5069180;28;20877;-84
2021/01/12 09:14:22;;;;;;;7.90;1.70;;;23.70;88.00;;;;;;5068338;28;20742;-85
2021/01/12 09:16:58;;;;;;;6.68;1.30;;;23.60;88.30;;;;;;5068077;28;20506;-84
2021/01/12 09:19:33;;;;;;;6.15;1.40;;;23.50;88.30;;;;;;5067934;28;20410;-84
2021/01/12 09:22:17;;;;;;;9.90;1.67;;;23.40;89.00;;;;;;5068571;28;20440;-85
2021/01/12 09:24:50;;;;;;;7.10;1.48;;;23.30;89.30;;;;;;5068037;28;20435;-84
2021/01/12 09:27:18;;;;;;;6.93;1.63;;;23.30;89.70;;;;;;5068337;28;20535;-85
2021/01/12 09:29:46;;;;;;;8.77;1.55;;;23.20;90.00;;;;;;5067724;28;20711;-84
2021/01/12 09:32:23;;;;;;;6.25;1.80;;;23.10;90.20;;;;;;5068689;28;20418;-85
2021/01/12 09:34:50;;;;;;;8.70;1.77;;;23.10;90.40;;;;;;5067914;28;20378;-85
2021/01/12 09:37:21;;;;;;;9.25;1.50;;;23.00;90.50;;;;;;5050018;28;20397;-85
2021/01/12 09:40:02;;;;;;;10.05;2.03;;;22.90;90.70;;;;;;5067677;28;20409;-85
2021/01/12 09:42:29;;;;;;;7.07;1.60;;;22.90;90.90;;;;;;5067626;28;20386;-85
2021/01/12 09:44:57;;;;;;;8.75;1.63;;;22.80;90.90;;;;;;5068030;28;20378;-85
2021/01/12 09:47:24;;;;;;;9.27;1.80;;;22.70;91.30;;;;;;5067980;28;20358;-84
2021/01/12 09:49:51;;;;;;;10.35;2.13;;;22.70;91.50;;;;;;5067891;28;20738;-85
2021/01/12 09:52:18;;;;;;;7.15;1.63;;;22.60;91.60;;;;;;5067348;28;20818;-85
2021/01/12 09:54:48;;;;;;;11.63;1.95;;;22.60;91.70;;;;;;5066819;28;20943;-85
2021/01/12 09:57:15;;;;;;;9.77;1.77;;;22.50;91.80;;;;;;5067202;28;20389;-84
2021/01/12 09:59:42;;;;;;;9.65;1.90;;;22.50;92.00;;;;;;5067358;28;20394;-84
2021/01/12 10:02:10;;;;;;;9.82;1.73;;;22.40;92.20;;;;;;5068011;28;20401;-84
2021/01/12 10:04:38;;;;;;;7.15;1.65;;;22.40;92.30;;;;;;5067078;28;20733;-84
2021/01/12 10:07:05;;;;;;;8.38;1.85;;;22.40;92.60;;;;;;5067342;28;20428;-85
2021/01/12 10:09:32;;;;;;;7.63;2.03;;;22.30;92.80;;;;;;5067303;28;20994;-83
2021/01/12 10:12:00;;;;;;;13.50;2.05;;;22.30;93.20;;;;;;5067289;28;20400;-84
2021/01/12 10:14:27;;;;;;;9.05;2.22;;;22.20;93.40;;;;;;5067443;28;20370;-85
2021/01/12 10:16:54;;;;;;;12.80;2.20;;;22.20;93.70;;;;;;5066582;28;20413;-83
2021/01/12 10:19:21;;;;;;;10.20;1.90;;;22.10;94.20;;;;;;5066812;28;20396;-84
2021/01/12 10:21:52;;;;;;;10.70;2.20;;;22.10;94.50;;;;;;5067595;28;20412;-85
2021/01/12 10:24:22;;;;;;;12.98;2.10;;;22.10;94.80;;;;;;5067049;28;20759;-84
2021/01/12 10:26:54;;;;;;;10.02;2.00;;;22.00;95.00;;;;;;5066661;28;20390;-85
2021/01/12 10:29:26;;;;;;;11.02;1.95;;;22.10;95.20;;;;;;5065345;28;20373;-85
2021/01/12 10:31:53;;;;;;;12.95;2.10;;;22.00;95.40;;;;;;5066700;28;20396;-84
2021/01/12 10:34:21;;;;;;;11.57;2.38;;;21.90;95.70;;;;;;5066699;28;20822;-85
2021/01/12 10:36:52;;;;;;;10.45;2.13;;;21.90;96.00;;;;;;5065928;28;20381;-85
2021/01/12 10:39:19;;;;;;;13.10;2.40;;;21.80;96.20;;;;;;5064476;28;20534;-83
2021/01/12 10:41:46;;;;;;;10.43;2.00;;;21.80;96.40;;;;;;5068649;28;20893;-84
2021/01/12 10:44:13;;;;;;;10.38;2.13;;;21.80;96.60;;;;;;5066173;28;20506;-84
2021/01/12 10:46:41;;;;;;;9.05;2.00;;;21.70;96.80;;;;;;5066862;28;20410;-84
2021/01/12 10:49:08;;;;;;;12.35;2.00;;;21.70;97.10;;;;;;5066236;28;20393;-84
2021/01/12 10:51:36;;;;;;;16.30;2.45;;;21.70;97.40;;;;;;5065113;28;20397;-83
2021/01/12 10:54:03;;;;;;;14.35;2.13;;;21.60;97.50;;;;;;5060408;28;20392;-83
2021/01/12 10:56:30;;;;;;;11.90;2.20;;;21.60;97.90;;;;;;5058093;28;20413;-84
2021/01/12 10:58:57;;;;;;;9.43;1.88;;;21.50;97.90;;;;;;5061307;28;20812;-84
2021/01/12 11:01:25;;;;;;;12.27;2.30;;;21.50;98.10;;;;;;5065333;28;20401;-84
2021/01/12 11:03:52;;;;;;;11.63;2.20;;;21.50;98.10;;;;;;5065131;28;20776;-84
2021/01/12 11:06:19;;;;;;;13.48;2.25;;;21.60;98.20;;;;;;5063610;28;20420;-83
2021/01/12 11:08:48;;;;;;;11.93;2.53;;;21.60;98.20;;;;;;5056707;28;20424;-84
2021/01/12 11:11:23;;;;;;;12.32;2.45;;;21.60;98.30;;;;;;5061305;28;20400;-83
2021/01/12 11:13:51;;;;;;;15.40;2.72;;;21.50;98.30;;;;;;5059848;28;20391;-83
2021/01/12 11:16:18;;;;;;;14.10;2.50;;;21.50;98.30;;;;;;5057080;28;20389;-84
2021/01/12 11:18:46;;;;;;;12.38;2.45;;;21.50;98.50;;;;;;5055785;28;20471;-84
2021/01/12 11:21:14;;;;;;;12.00;1.95;;;21.50;98.60;;;;;;5058504;28;20417;-84
2021/01/12 11:23:41;;;;;;;16.33;2.22;;;21.50;98.50;;;;;;5066355;28;20483;-83
2021/01/12 11:26:08;;;;;;;13.15;2.25;;;21.50;98.50;;;;;;5066159;28;20513;-84
2021/01/12 11:28:35;;;;;;;13.70;1.95;;;21.30;98.50;;;;;;5049054;28;20399;-84
2021/01/12 11:31:03;;;;;;;11.88;2.70;;;21.10;99.30;;;;;;5050430;28;20379;-84
2021/01/12 11:33:30;;;;;;;12.15;2.22;;;20.90;99.80;;;;;;5066063;28;20390;-84
2021/01/12 11:35:58;;;;;;;8.52;2.08;;;20.80;99.90;;;;;;5051944;28;20459;-82
2021/01/12 11:38:25;;;;;;;14.00;2.77;;;20.80;99.90;;;;;;5037327;28;20417;-82
2021/01/12 11:40:52;;;;;;;14.38;2.13;;;20.70;99.90;;;;;;5064732;28;20417;-84
2021/01/12 11:43:20;;;;;;;12.80;2.30;;;20.60;99.90;;;;;;5062359;28;20485;-85
2021/01/12 11:45:47;;;;;;;13.63;2.30;;;20.60;99.90;;;;;;5065642;28;20389;-85
2021/01/12 11:48:14;;;;;;;11.77;2.30;;;20.60;99.90;;;;;;5047809;28;20409;-85
2021/01/12 11:50:41;;;;;;;14.82;2.63;;;20.70;99.90;;;;;;5046847;28;20418;-85
2021/01/12 11:53:08;;;;;;;12.50;2.03;;;20.80;99.90;;;;;;5061651;28;20401;-85
2021/01/12 11:55:41;;;;;;;9.98;2.28;;;20.80;99.90;;;;;;5069154;28;20448;-83
2021/01/12 11:58:08;;;;;;;12.77;2.40;;;20.80;99.90;;;;;;5061398;28;20393;-85
2021/01/12 12:00:35;;;;;;;13.10;2.65;;;20.80;99.90;;;;;;5060899;28;20435;-85
2021/01/12 12:03:02;;;;;;;9.38;2.13;;;20.90;99.90;;;;;;5060648;28;20473;-83
2021/01/12 12:05:29;;;;;;;11.88;2.20;;;20.90;99.90;;;;;;5063320;28;20879;-85
2021/01/12 12:07:56;;;;;;;13.40;2.10;;;20.90;99.90;;;;;;5063665;28;20753;-84
2021/01/12 12:10:23;;;;;;;9.40;2.03;;;20.90;99.90;;;;;;5062980;28;20455;-83
2021/01/12 12:12:51;;;;;;;10.30;1.80;;;20.80;99.90;;;;;;5060988;28;20389;-84
2021/01/12 12:15:18;;;;;;;13.57;2.50;;;20.70;99.90;;;;;;5050759;28;20445;-84
2021/01/12 12:17:45;;;;;;;12.73;2.30;;;20.60;99.90;;;;;;5068449;28;20386;-85
2021/01/12 12:20:14;;;;;;;11.48;2.10;;;20.60;99.90;;;;;;5072353;28;20744;-83
2021/01/12 12:22:41;;;;;;;10.57;2.25;;;20.50;99.90;;;;;;5072339;28;20402;-83
2021/01/12 12:25:10;;;;;;;11.07;2.00;;;20.50;99.90;;;;;;5071786;28;20449;-83
2021/01/12 12:27:38;;;;;;;11.88;1.95;;;20.50;99.90;;;;;;5072715;28;20392;-83
2021/01/12 12:30:06;;;;;;;11.37;2.17;;;20.50;99.90;;;;;;5069113;28;20919;-84
2021/01/12 12:32:33;;;;;;;13.20;2.20;;;20.60;99.90;;;;;;5052832;28;20445;-84
2021/01/12 12:35:00;;;;;;;13.65;2.42;;;20.60;99.90;;;;;;5070551;28;20386;-84
2021/01/12 12:37:27;;;;;;;12.95;2.38;;;20.70;99.90;;;;;;5072500;28;20458;-84
2021/01/12 12:39:54;;;;;;;11.38;2.05;;;20.70;99.90;;;;;;5072030;28;20538;-84
2021/01/12 12:42:21;;;;;;;13.73;2.05;;;20.70;99.90;;;;;;5072234;28;20418;-84
2021/01/12 12:44:48;;;;;;;12.75;2.45;;;20.70;99.90;;;;;;5069232;28;20544;-84
2021/01/12 12:47:16;;;;;;;14.90;2.13;;;20.70;99.90;;;;;;5065876;28;20396;-84
2021/01/12 12:49:43;;;;;;;11.95;2.55;;;20.70;99.90;;;;;;5057126;28;20397;-84
2021/01/12 12:52:12;;;;;;;12.43;2.00;;;20.70;99.90;;;;;;5071329;28;20402;-83
2021/01/12 12:54:39;;;;;;;14.55;2.63;;;20.70;99.90;;;;;;5066378;28;20401;-84